createdAt,value
2023-04-04T00:01:37.479Z,100.00
2023-04-04T00:06:36.844Z,100.00
2023-04-04T00:11:34.615Z,100.00
2023-04-04T00:16:44.684Z,100.00
2023-04-04T00:22:01.952Z,100.00
2023-04-04T00:27:07.590Z,100.00
2023-04-04T00:32:12.046Z,100.00
2023-04-04T00:37:13.204Z,100.00
2023-04-04T00:42:16.271Z,100.00
2023-04-04T00:47:22.493Z,100.00
2023-04-04T00:52:19.648Z,100.00
2023-04-04T00:57:19.586Z,100.00
2023-04-04T01:02:20.947Z,100.00
2023-04-04T01:07:24.529Z,100.00
2023-04-04T01:12:23.864Z,100.00
2023-04-04T01:17:21.435Z,100.00
2023-04-04T01:22:30.708Z,100.00
2023-04-04T01:27:29.807Z,100.00
2023-04-04T01:32:55.867Z,100.00
2023-04-04T01:38:57.137Z,100.00
2023-04-04T01:43:59.457Z,100.00
2023-04-04T01:48:58.876Z,100.00
2023-04-04T01:54:00.597Z,100.00
2023-04-04T01:58:59.880Z,100.00
2023-04-04T02:03:57.435Z,100.00
2023-04-04T02:08:58.665Z,100.00
2023-04-04T02:13:55.399Z,100.00
2023-04-04T02:18:53.111Z,100.00
2023-04-04T02:23:56.066Z,100.00
2023-04-04T02:29:00.723Z,100.00
2023-04-04T02:34:06.478Z,100.00
2023-04-04T02:39:05.584Z,100.00
2023-04-04T02:44:12.648Z,100.00
2023-04-04T02:49:15.215Z,100.00
2023-04-04T02:54:16.069Z,100.00
2023-04-04T02:59:15.019Z,100.00
2023-04-04T03:04:22.262Z,100.00
2023-04-04T03:09:24.999Z,100.00
2023-04-04T03:14:30.223Z,100.00
2023-04-04T03:19:34.690Z,100.00
2023-04-04T03:24:31.575Z,100.00
2023-04-04T03:29:32.543Z,100.00
2023-04-04T03:34:32.124Z,100.00
2023-04-04T03:39:37.548Z,100.00
2023-04-04T03:44:40.062Z,100.00
2023-04-04T03:49:41.868Z,100.00
2023-04-04T03:54:48.362Z,100.00
2023-04-04T03:59:49.624Z,100.00
2023-04-04T04:04:50.654Z,100.00
2023-04-04T04:09:50.908Z,100.00
2023-04-04T04:14:51.035Z,100.00
2023-04-04T04:20:18.981Z,100.00
2023-04-04T04:25:28.164Z,100.00
2023-04-04T04:30:34.294Z,100.00
2023-04-04T04:35:39.936Z,100.00
2023-04-04T04:40:41.588Z,100.00
2023-04-04T04:45:38.595Z,100.00
2023-04-04T04:50:42.021Z,100.00
2023-04-04T04:55:43.183Z,100.00
2023-04-04T05:00:50.164Z,100.00
2023-04-04T05:05:52.217Z,100.00
2023-04-04T05:10:55.514Z,100.00
2023-04-04T05:15:55.704Z,100.00
2023-04-04T05:21:01.262Z,100.00
2023-04-04T05:26:05.767Z,100.00
2023-04-04T05:31:04.814Z,100.00
2023-04-04T05:36:04.414Z,100.00
2023-04-04T05:41:03.394Z,100.00
2023-04-04T05:46:02.328Z,100.00
2023-04-04T05:51:12.316Z,100.00
2023-04-04T05:56:14.525Z,100.00
2023-04-04T06:01:19.881Z,100.00
2023-04-04T06:06:23.853Z,100.00
2023-04-04T06:11:26.052Z,100.00
2023-04-04T06:16:26.081Z,100.00
2023-04-04T06:21:27.388Z,100.00
2023-04-04T06:26:29.824Z,100.00
2023-04-04T06:31:53.966Z,100.00
2023-04-04T06:36:53.600Z,100.00
2023-04-04T06:41:54.781Z,100.00
2023-04-04T06:46:52.105Z,100.00
2023-04-04T06:51:50.926Z,100.00
2023-04-04T06:56:51.822Z,100.00
2023-04-04T07:01:50.326Z,100.00
2023-04-04T07:06:53.651Z,100.00
2023-04-04T07:11:53.406Z,100.00
2023-04-04T07:16:59.910Z,100.00
2023-04-04T07:22:04.808Z,100.00
2023-04-04T07:27:05.895Z,100.00
2023-04-04T07:32:11.361Z,100.00
2023-04-04T07:37:11.455Z,100.00
2023-04-04T07:42:27.013Z,100.00
2023-04-04T07:47:32.659Z,100.00
2023-04-04T07:52:39.048Z,100.00
2023-04-04T07:57:48.270Z,100.00
2023-04-04T08:02:45.864Z,100.00
2023-04-04T08:07:52.478Z,100.00
2023-04-04T08:12:53.396Z,100.00
2023-04-04T08:17:52.356Z,100.00
2023-04-04T08:22:55.653Z,100.00
2023-04-04T08:27:55.002Z,100.00
2023-04-04T08:32:54.888Z,100.00
2023-04-04T08:37:57.564Z,100.00
2023-04-04T08:43:08.138Z,100.00
2023-04-04T08:48:06.350Z,100.00
2023-04-04T08:53:17.387Z,100.00
2023-04-04T08:58:24.957Z,100.00
2023-04-04T09:03:29.420Z,100.00
2023-04-04T09:08:26.725Z,100.00
2023-04-04T09:13:26.454Z,100.00
2023-04-04T09:18:31.356Z,100.00
2023-04-04T09:23:28.417Z,100.00
2023-04-04T09:28:28.549Z,100.00
2023-04-04T09:33:30.328Z,99.62
2023-04-04T09:38:39.684Z,90.14
2023-04-04T09:43:47.896Z,82.35
2023-04-04T09:48:50.816Z,83.02
2023-04-04T09:53:48.866Z,91.53
2023-04-04T09:59:03.282Z,88.35
2023-04-04T10:04:04.454Z,85.53
2023-04-04T10:09:03.300Z,78.86
2023-04-04T10:14:04.591Z,77.28
2023-04-04T10:19:17.930Z,75.38
2023-04-04T10:24:22.328Z,67.08
2023-04-04T10:29:40.316Z,72.14
2023-04-04T10:34:52.324Z,60.62
2023-04-04T10:40:14.597Z,48.32
2023-04-04T10:45:21.730Z,42.74
2023-04-04T10:50:23.521Z,33.69
2023-04-04T10:55:26.239Z,35.98
2023-04-04T11:00:33.906Z,36.03
2023-04-04T11:05:47.583Z,35.29
2023-04-04T11:10:53.502Z,36.92
2023-04-04T11:16:18.400Z,36.64
2023-04-04T11:21:28.137Z,33.95
2023-04-04T11:26:31.134Z,35.94
2023-04-04T11:32:04.672Z,33.43
2023-04-04T11:37:18.580Z,31.41
2023-04-04T11:42:22.788Z,32.49
2023-04-04T11:47:27.307Z,34.87
2023-04-04T11:52:32.893Z,37.97
2023-04-04T11:57:34.392Z,39.45
2023-04-04T12:02:34.972Z,37.62
2023-04-04T12:07:37.623Z,34.45
2023-04-04T12:12:41.049Z,32.26
2023-04-04T12:17:42.370Z,32.90
2023-04-04T12:22:41.635Z,34.81
2023-04-04T12:27:41.350Z,36.50
2023-04-04T12:32:40.638Z,34.58
2023-04-04T12:38:00.858Z,34.26
2023-04-04T12:43:12.074Z,32.37
2023-04-04T12:48:15.686Z,30.73
2023-04-04T12:58:30.703Z,32.51
2023-04-04T13:03:38.267Z,35.09
2023-04-04T13:08:40.523Z,30.90
2023-04-04T13:13:40.452Z,33.31
2023-04-04T13:18:44.275Z,35.15
2023-04-04T13:23:41.867Z,34.56
2023-04-04T13:28:39.175Z,30.78
2023-04-04T13:33:43.929Z,29.78
2023-04-04T13:38:41.417Z,32.51
2023-04-04T13:43:40.582Z,33.20
2023-04-04T13:48:37.700Z,36.59
2023-04-04T13:53:37.254Z,30.85
2023-04-04T13:58:39.437Z,31.16
2023-04-04T14:03:49.367Z,35.22
2023-04-04T14:08:51.612Z,34.66
2023-04-04T14:13:58.321Z,31.55
2023-04-04T14:18:55.261Z,34.06
2023-04-04T14:24:08.825Z,29.11
2023-04-04T14:29:05.904Z,34.30
2023-04-04T14:34:04.280Z,28.52
2023-04-04T14:39:01.179Z,31.77
2023-04-04T14:44:00.966Z,31.35
2023-04-04T14:49:00.390Z,28.53
2023-04-04T14:54:07.654Z,29.16
2023-04-04T14:59:16.725Z,30.17
2023-04-04T15:04:20.407Z,31.63
2023-04-04T15:09:24.621Z,31.12
2023-04-04T15:14:23.385Z,32.53
2023-04-04T15:19:23.541Z,34.67
2023-04-04T15:24:40.478Z,33.91
2023-04-04T15:29:42.122Z,33.67
2023-04-04T15:34:44.726Z,36.57
2023-04-04T15:39:52.873Z,34.32
2023-04-04T15:45:12.555Z,33.92
2023-04-04T15:50:12.212Z,33.51
2023-04-04T15:55:25.016Z,35.71
2023-04-04T16:00:28.285Z,38.93
2023-04-04T16:05:30.296Z,39.62
2023-04-04T16:10:29.322Z,39.94
2023-04-04T16:15:30.985Z,39.56
2023-04-04T16:20:32.136Z,43.03
2023-04-04T16:25:33.631Z,47.02
2023-04-04T16:30:35.608Z,51.45
2023-04-04T16:35:40.378Z,57.32
2023-04-04T16:40:40.417Z,51.05
2023-04-04T16:45:58.889Z,40.01
2023-04-04T16:50:57.259Z,40.33
2023-04-04T16:55:58.398Z,40.98
2023-04-04T17:01:23.301Z,39.42
2023-04-04T17:06:22.791Z,42.71
2023-04-04T17:11:27.614Z,49.07
2023-04-04T17:16:32.703Z,45.77
2023-04-04T17:21:50.778Z,55.27
2023-04-04T17:26:48.664Z,63.69
2023-04-04T17:31:52.126Z,70.26
2023-04-04T17:37:01.325Z,80.18
2023-04-04T17:42:02.956Z,78.31
2023-04-04T17:47:03.094Z,94.47
2023-04-04T17:51:59.824Z,88.80
2023-04-04T17:56:57.195Z,94.66
2023-04-04T18:01:53.851Z,100.00
2023-04-04T18:06:51.268Z,98.77
2023-04-04T18:11:47.958Z,100.00
2023-04-04T18:16:55.904Z,100.00
2023-04-04T18:21:53.883Z,100.00
2023-04-04T18:26:52.384Z,100.00
2023-04-04T18:31:49.589Z,100.00
2023-04-04T18:36:48.022Z,100.00
2023-04-04T18:41:46.362Z,100.00
2023-04-04T18:46:42.999Z,100.00
2023-04-04T18:51:39.462Z,100.00
2023-04-04T18:56:37.842Z,100.00
2023-04-04T19:01:36.237Z,100.00
2023-04-04T19:06:33.487Z,100.00
2023-04-04T19:11:31.767Z,100.00
2023-04-04T19:16:28.967Z,100.00
2023-04-04T19:21:26.141Z,100.00
2023-04-04T19:26:22.877Z,100.00
2023-04-04T19:31:24.602Z,100.00
2023-04-04T19:36:21.708Z,100.00
2023-04-04T19:41:18.018Z,100.00
2023-04-04T19:46:16.410Z,100.00
2023-04-04T19:51:36.792Z,100.00
2023-04-04T19:56:33.391Z,100.00
2023-04-04T20:01:32.419Z,100.00
2023-04-04T20:06:31.550Z,100.00
2023-04-04T20:11:30.660Z,100.00
2023-04-04T20:16:27.948Z,100.00
2023-04-04T20:21:31.409Z,100.00
2023-04-04T20:26:59.946Z,100.00
2023-04-04T20:31:57.824Z,100.00
2023-04-04T20:36:54.249Z,100.00
2023-04-04T20:41:51.433Z,100.00
2023-04-04T20:46:48.551Z,100.00
2023-04-04T20:51:45.047Z,100.00
2023-04-04T20:56:41.416Z,100.00
2023-04-04T21:01:37.874Z,100.00
2023-04-04T21:06:34.485Z,100.00
2023-04-04T21:11:33.361Z,100.00
2023-04-04T21:16:29.907Z,100.00
2023-04-04T21:21:27.263Z,100.00
2023-04-04T21:26:30.613Z,100.00
2023-04-04T21:31:34.614Z,100.00
2023-04-04T21:36:31.963Z,100.00
2023-04-04T21:41:32.349Z,100.00
2023-04-04T21:46:32.212Z,100.00
2023-04-04T21:51:28.900Z,100.00
2023-04-04T21:56:27.513Z,100.00
2023-04-04T22:01:24.874Z,100.00
2023-04-04T22:06:24.104Z,100.00
2023-04-04T22:11:21.252Z,100.00
2023-04-04T22:16:19.360Z,100.00
2023-04-04T22:21:15.963Z,100.00
2023-04-04T22:26:14.184Z,100.00
2023-04-04T22:31:10.767Z,100.00
2023-04-04T22:36:08.063Z,100.00
2023-04-04T22:41:04.751Z,100.00
2023-04-04T22:46:01.215Z,100.00
2023-04-04T22:50:58.616Z,100.00
2023-04-04T22:55:59.868Z,100.00
2023-04-04T23:00:56.337Z,100.00
2023-04-04T23:05:52.720Z,100.00
2023-04-04T23:10:49.145Z,100.00
2023-04-04T23:15:45.562Z,100.00
2023-04-04T23:20:42.256Z,100.00
2023-04-04T23:25:38.982Z,100.00
2023-04-04T23:30:35.615Z,100.00
2023-04-04T23:35:32.061Z,100.00
2023-04-04T23:40:28.477Z,100.00
2023-04-04T23:45:25.935Z,100.00
2023-04-04T23:50:23.950Z,100.00
2023-04-04T23:55:20.527Z,100.00
